Time,TemperatureF,DewpointF,PressureIn,WindDirection,WindDirectionDegrees,WindSpeedMPH,WindSpeedGustMPH,Humidity,HourlyPrecipIn,Conditions,Clouds,dailyrainin,SolarRadiationWatts/m^2,SoftwareType,DateUTC
2013-02-19 00:11:00,68.4,56.0,30.14,South,186,3.0,-999.0,65,-99.99,,,0.00,0,weatherlink.com 1.10,2013-02-19 05:11:00,
2013-02-19 00:26:00,68.3,56.0,30.13,ESE,121,3.0,-999.0,66,-99.99,,,0.00,0,weatherlink.com 1.10,2013-02-19 05:26:00,
2013-02-19 00:41:00,68.1,56.0,30.13,South,190,4.0,-999.0,66,-99.99,,,0.00,0,weatherlink.com 1.10,2013-02-19 05:41:00,
2013-02-19 00:56:00,68.3,57.0,30.13,SE,137,2.0,-999.0,67,-99.99,,,0.00,0,weatherlink.com 1.10,2013-02-19 05:56:00,
2013-02-19 01:12:00,68.3,56.0,30.12,SE,136,2.0,-999.0,66,-99.99,,,0.00,0,weatherlink.com 1.10,2013-02-19 06:12:00,
2013-02-19 01:27:00,68.4,56.0,30.12,SSE,163,4.0,-999.0,65,-99.99,,,0.00,0,weatherlink.com 1.10,2013-02-19 06:27:00,
2013-02-19 01:41:00,68.4,55.0,30.13,ESE,116,1.0,-999.0,63,-99.99,,,0.00,0,weatherlink.com 1.10,2013-02-19 06:41:00,
2013-02-19 01:56:00,68.4,55.0,30.12,SSE,152,2.0,-999.0,62,-99.99,,,0.00,0,weatherlink.com 1.10,2013-02-19 06:56:00,
2013-02-19 02:11:00,68.4,55.0,30.11,SE,145,0.0,-999.0,63,-99.99,,,0.00,0,weatherlink.com 1.10,2013-02-19 07:11:00,
2013-02-19 02:26:00,68.4,55.0,30.11,SE,144,0.0,-999.0,63,-99.99,,,0.00,0,weatherlink.com 1.10,2013-02-19 07:26:00,
2013-02-19 02:42:00,68.6,57.0,30.10,SSE,167,6.0,-999.0,66,-99.99,,,0.00,0,weatherlink.com 1.10,2013-02-19 07:42:00,
2013-02-19 02:56:00,68.4,56.0,30.10,SE,145,2.0,-999.0,65,-99.99,,,0.00,0,weatherlink.com 1.10,2013-02-19 07:56:00,
2013-02-19 03:12:00,68.6,56.0,30.10,SE,144,2.0,-999.0,64,-99.99,,,0.00,0,weatherlink.com 1.10,2013-02-19 08:12:00,
2013-02-19 03:26:00,68.8,56.0,30.09,SSE,154,4.0,-999.0,64,-99.99,,,0.00,0,weatherlink.com 1.10,2013-02-19 08:26:00,
2013-02-19 03:41:00,68.6,56.0,30.09,SE,127,1.0,-999.0,65,-99.99,,,0.00,0,weatherlink.com 1.10,2013-02-19 08:41:00,
2013-02-19 03:56:00,68.4,57.0,30.09,SSE,161,1.0,-999.0,66,-99.99,,,0.00,0,weatherlink.com 1.10,2013-02-19 08:56:00,
2013-02-19 04:11:00,68.4,57.0,30.09,SE,126,0.0,-999.0,67,-99.99,,,0.00,0,weatherlink.com 1.10,2013-02-19 09:11:00,
2013-02-19 04:26:00,68.3,57.0,30.09,SSE,151,2.0,-999.0,67,-99.99,,,0.00,0,weatherlink.com 1.10,2013-02-19 09:26:00,
2013-02-19 04:41:00,68.3,57.0,30.08,SE,146,3.0,-999.0,67,-99.99,,,0.00,0,weatherlink.com 1.10,2013-02-19 09:41:00,
2013-02-19 04:56:00,68.4,57.0,30.09,SSE,148,2.0,-999.0,67,-99.99,,,0.00,0,weatherlink.com 1.10,2013-02-19 09:56:00,
2013-02-19 05:11:00,68.4,57.0,30.08,SSE,150,0.0,-999.0,68,-99.99,,,0.00,0,weatherlink.com 1.10,2013-02-19 10:11:00,
2013-02-19 05:26:00,68.8,58.0,30.09,SSE,150,3.0,-999.0,68,-99.99,,,0.00,0,weatherlink.com 1.10,2013-02-19 10:26:00,
2013-02-19 05:41:00,68.9,58.0,30.09,SSE,148,1.0,-999.0,69,-99.99,,,0.00,0,weatherlink.com 1.10,2013-02-19 10:41:00,
2013-02-19 05:56:00,68.9,59.0,30.09,SE,140,0.0,-999.0,70,-99.99,,,0.00,0,weatherlink.com 1.10,2013-02-19 10:56:00,
2013-02-19 06:12:00,68.9,59.0,30.10,SE,146,2.0,-999.0,70,-99.99,,,0.00,0,weatherlink.com 1.10,2013-02-19 11:12:00,
2013-02-19 06:26:00,68.6,58.0,30.10,SSE,159,0.0,-999.0,70,-99.99,,,0.00,0,weatherlink.com 1.10,2013-02-19 11:26:00,
2013-02-19 06:41:00,68.8,59.0,30.10,SE,146,3.0,-999.0,71,-99.99,,,0.00,0,weatherlink.com 1.10,2013-02-19 11:41:00,
2013-02-19 06:56:00,68.9,59.0,30.10,SE,142,5.0,-999.0,71,-99.99,,,0.00,5,weatherlink.com 1.10,2013-02-19 11:56:00,
2013-02-19 07:12:00,69.1,59.0,30.11,SSE,158,0.0,-999.0,71,-99.99,,,0.00,16,weatherlink.com 1.10,2013-02-19 12:12:00,
2013-02-19 07:26:00,69.3,60.0,30.11,SSE,148,3.0,-999.0,71,-99.99,,,0.00,49,weatherlink.com 1.10,2013-02-19 12:26:00,
2013-02-19 07:41:00,69.8,60.0,30.11,SSE,153,0.0,-999.0,71,-99.99,,,0.00,49,weatherlink.com 1.10,2013-02-19 12:41:00,
2013-02-19 07:56:00,70.1,60.0,30.12,SE,146,0.0,-999.0,71,-99.99,,,0.00,51,weatherlink.com 1.10,2013-02-19 12:56:00,
2013-02-19 08:11:00,70.6,61.0,30.12,SSE,163,4.0,-999.0,71,-99.99,,,0.00,62,weatherlink.com 1.10,2013-02-19 13:11:00,
2013-02-19 08:26:00,71.3,61.0,30.12,SSE,153,4.0,-999.0,70,-99.99,,,0.00,84,weatherlink.com 1.10,2013-02-19 13:26:00,
2013-02-19 08:41:00,71.6,61.0,30.13,SSE,151,3.0,-999.0,69,-99.99,,,0.00,109,weatherlink.com 1.10,2013-02-19 13:41:00,
2013-02-19 08:56:00,72.1,61.0,30.13,South,172,4.0,-999.0,68,-99.99,,,0.00,142,weatherlink.com 1.10,2013-02-19 13:56:00,
2013-02-19 09:11:00,72.5,61.0,30.13,SSE,154,5.0,-999.0,68,-99.99,,,0.00,139,weatherlink.com 1.10,2013-02-19 14:11:00,
2013-02-19 09:26:00,72.7,62.0,30.13,SSE,150,2.0,-999.0,68,-99.99,,,0.00,186,weatherlink.com 1.10,2013-02-19 14:26:00,
2013-02-19 09:41:00,74.0,62.0,30.13,ESE,119,2.0,-999.0,67,-99.99,,,0.00,557,weatherlink.com 1.10,2013-02-19 14:41:00,
2013-02-19 09:56:00,74.7,62.0,30.13,South,181,7.0,-999.0,65,-99.99,,,0.00,606,weatherlink.com 1.10,2013-02-19 14:56:00,
2013-02-19 10:11:00,74.4,62.0,30.13,SSE,155,3.0,-999.0,66,-99.99,,,0.00,670,weatherlink.com 1.10,2013-02-19 15:11:00,
2013-02-19 10:26:00,75.1,62.0,30.13,SSE,162,6.0,-999.0,65,-99.99,,,0.00,791,weatherlink.com 1.10,2013-02-19 15:26:00,
2013-02-19 10:41:00,74.6,62.0,30.13,South,175,7.0,-999.0,66,-99.99,,,0.00,241,weatherlink.com 1.10,2013-02-19 15:41:00,
2013-02-19 10:56:00,74.9,63.0,30.13,South,173,2.0,-999.0,66,-99.99,,,0.00,320,weatherlink.com 1.10,2013-02-19 15:56:00,
2013-02-19 11:11:00,74.4,63.0,30.13,SSE,168,4.0,-999.0,67,-99.99,,,0.00,271,weatherlink.com 1.10,2013-02-19 16:11:00,
2013-02-19 11:26:00,74.4,63.0,30.13,SSE,159,3.0,-999.0,67,-99.99,,,0.00,248,weatherlink.com 1.10,2013-02-19 16:26:00,
2013-02-19 11:42:00,74.2,63.0,30.13,SE,134,12.0,-999.0,68,-99.99,,,0.00,410,weatherlink.com 1.10,2013-02-19 16:42:00,
2013-02-19 11:56:00,75.4,64.0,30.12,ESE,111,7.0,-999.0,67,-99.99,,,0.00,928,weatherlink.com 1.10,2013-02-19 16:56:00,
2013-02-19 12:11:00,75.6,64.0,30.11,SSE,159,4.0,-999.0,67,-99.99,,,0.00,478,weatherlink.com 1.10,2013-02-19 17:11:00,
2013-02-19 12:27:00,76.1,64.0,30.11,SSE,161,15.0,-999.0,67,-99.99,,,0.00,733,weatherlink.com 1.10,2013-02-19 17:27:00,
2013-02-19 12:41:00,76.0,64.0,30.11,SE,144,10.0,-999.0,67,-99.99,,,0.00,348,weatherlink.com 1.10,2013-02-19 17:41:00,
2013-02-19 12:56:00,75.3,64.0,30.10,South,175,6.0,-999.0,69,-99.99,,,0.00,1100,weatherlink.com 1.10,2013-02-19 17:56:00,
2013-02-19 13:12:00,76.0,65.0,30.10,SSE,158,5.0,-999.0,68,-99.99,,,0.00,446,weatherlink.com 1.10,2013-02-19 18:12:00,
2013-02-19 13:27:00,75.6,64.0,30.09,South,169,5.0,-999.0,68,-99.99,,,0.00,413,weatherlink.com 1.10,2013-02-19 18:27:00,
2013-02-19 13:41:00,76.0,65.0,30.08,SE,142,4.0,-999.0,69,-99.99,,,0.00,958,weatherlink.com 1.10,2013-02-19 18:41:00,
2013-02-19 13:56:00,76.3,65.0,30.08,SSW,192,6.0,-999.0,67,-99.99,,,0.00,248,weatherlink.com 1.10,2013-02-19 18:56:00,
2013-02-19 14:11:00,76.5,65.0,30.08,SE,144,4.0,-999.0,68,-99.99,,,0.00,926,weatherlink.com 1.10,2013-02-19 19:11:00,
2013-02-19 14:26:00,76.1,65.0,30.07,SSE,155,5.0,-999.0,68,-99.99,,,0.00,185,weatherlink.com 1.10,2013-02-19 19:26:00,
2013-02-19 14:41:00,76.8,65.0,30.07,South,169,6.0,-999.0,68,-99.99,,,0.00,768,weatherlink.com 1.10,2013-02-19 19:41:00,
2013-02-19 14:56:00,76.1,65.0,30.06,SSE,153,1.0,-999.0,69,-99.99,,,0.00,650,weatherlink.com 1.10,2013-02-19 19:56:00,
2013-02-19 15:12:00,76.8,65.0,30.06,SE,146,6.0,-999.0,68,-99.99,,,0.00,424,weatherlink.com 1.10,2013-02-19 20:12:00,
2013-02-19 15:26:00,76.3,65.0,30.05,SE,132,5.0,-999.0,69,-99.99,,,0.00,216,weatherlink.com 1.10,2013-02-19 20:26:00,
2013-02-19 15:41:00,77.0,66.0,30.05,SE,144,9.0,-999.0,68,-99.99,,,0.00,659,weatherlink.com 1.10,2013-02-19 20:41:00,
2013-02-19 15:57:00,76.8,66.0,30.05,ESE,118,2.0,-999.0,69,-99.99,,,0.00,550,weatherlink.com 1.10,2013-02-19 20:57:00,
2013-02-19 16:12:00,75.8,65.0,30.05,SE,137,7.0,-999.0,70,-99.99,,,0.00,526,weatherlink.com 1.10,2013-02-19 21:12:00,
2013-02-19 16:26:00,75.3,65.0,30.05,SSE,155,6.0,-999.0,70,-99.99,,,0.00,237,weatherlink.com 1.10,2013-02-19 21:26:00,
2013-02-19 16:42:00,75.8,65.0,30.05,SSE,151,10.0,-999.0,70,-99.99,,,0.00,260,weatherlink.com 1.10,2013-02-19 21:42:00,
2013-02-19 16:56:00,75.1,66.0,30.05,SSE,159,3.0,-999.0,72,-99.99,,,0.00,213,weatherlink.com 1.10,2013-02-19 21:56:00,
2013-02-19 17:12:00,75.3,66.0,30.04,South,185,10.0,-999.0,72,-99.99,,,0.00,229,weatherlink.com 1.10,2013-02-19 22:12:00,
2013-02-19 17:27:00,74.9,66.0,30.04,SSE,167,3.0,-999.0,73,-99.99,,,0.00,83,weatherlink.com 1.10,2013-02-19 22:27:00,
2013-02-19 17:41:00,74.6,65.0,30.04,SSE,168,5.0,-999.0,73,-99.99,,,0.00,44,weatherlink.com 1.10,2013-02-19 22:41:00,
2013-02-19 17:56:00,74.4,66.0,30.04,SE,146,6.0,-999.0,74,-99.99,,,0.00,21,weatherlink.com 1.10,2013-02-19 22:56:00,
2013-02-19 18:11:00,74.2,66.0,30.05,SSE,168,3.0,-999.0,75,-99.99,,,0.00,9,weatherlink.com 1.10,2013-02-19 23:11:00,
2013-02-19 18:26:00,74.0,66.0,30.05,South,187,7.0,-999.0,76,-99.99,,,0.00,0,weatherlink.com 1.10,2013-02-19 23:26:00,
2013-02-19 18:41:00,73.7,66.0,30.05,SSE,147,3.0,-999.0,77,-99.99,,,0.00,0,weatherlink.com 1.10,2013-02-19 23:41:00,
2013-02-19 18:56:00,73.5,66.0,30.05,SSE,159,0.0,-999.0,77,-99.99,,,0.00,0,weatherlink.com 1.10,2013-02-19 23:56:00,
2013-02-19 19:11:00,73.3,66.0,30.05,SE,143,0.0,-999.0,78,-99.99,,,0.00,0,weatherlink.com 1.10,2013-02-20 00:11:00,
2013-02-19 19:27:00,73.2,66.0,30.06,SSE,151,3.0,-999.0,79,-99.99,,,0.00,0,weatherlink.com 1.10,2013-02-20 00:27:00,
2013-02-19 19:41:00,73.0,66.0,30.05,SSE,148,5.0,-999.0,79,-99.99,,,0.00,0,weatherlink.com 1.10,2013-02-20 00:41:00,
2013-02-19 19:56:00,72.8,66.0,30.06,SE,143,3.0,-999.0,80,-99.99,,,0.00,0,weatherlink.com 1.10,2013-02-20 00:56:00,
2013-02-19 20:11:00,72.7,66.0,30.07,SSE,156,0.0,-999.0,80,-99.99,,,0.00,0,weatherlink.com 1.10,2013-02-20 01:11:00,
2013-02-19 20:26:00,72.7,67.0,30.07,SSE,157,1.0,-999.0,81,-99.99,,,0.00,0,weatherlink.com 1.10,2013-02-20 01:26:00,
2013-02-19 20:41:00,72.5,66.0,30.07,SSE,157,0.0,-999.0,81,-99.99,,,0.00,0,weatherlink.com 1.10,2013-02-20 01:41:00,
2013-02-19 20:56:00,72.3,66.0,30.07,SSE,157,0.0,-999.0,81,-99.99,,,0.00,0,weatherlink.com 1.10,2013-02-20 01:56:00,
2013-02-19 21:12:00,72.1,66.0,30.07,SSE,157,0.0,-999.0,81,-99.99,,,0.00,0,weatherlink.com 1.10,2013-02-20 02:12:00,
2013-02-19 21:27:00,72.0,66.0,30.07,SSE,153,0.0,-999.0,82,-99.99,,,0.00,0,weatherlink.com 1.10,2013-02-20 02:27:00,
2013-02-19 21:42:00,71.8,66.0,30.07,SSE,153,0.0,-999.0,82,-99.99,,,0.00,0,weatherlink.com 1.10,2013-02-20 02:42:00,
2013-02-19 21:56:00,71.6,66.0,30.07,SSE,152,0.0,-999.0,82,-99.99,,,0.00,0,weatherlink.com 1.10,2013-02-20 02:56:00,
2013-02-19 22:11:00,71.5,66.0,30.07,SSE,152,0.0,-999.0,83,-99.99,,,0.00,0,weatherlink.com 1.10,2013-02-20 03:11:00,
2013-02-19 22:27:00,71.5,66.0,30.07,SSE,152,0.0,-999.0,83,-99.99,,,0.00,0,weatherlink.com 1.10,2013-02-20 03:27:00,
2013-02-19 22:56:00,70.8,65.0,30.06,SSE,152,0.0,-999.0,83,-99.99,,,0.00,0,weatherlink.com 1.10,2013-02-20 03:56:00,
2013-02-19 23:11:00,70.3,65.0,30.05,SSE,152,0.0,-999.0,83,-99.99,,,0.00,0,weatherlink.com 1.10,2013-02-20 04:11:00,
2013-02-19 23:26:00,69.9,65.0,30.05,SSE,152,0.0,-999.0,84,-99.99,,,0.00,0,weatherlink.com 1.10,2013-02-20 04:26:00,
2013-02-19 23:41:00,69.4,64.0,30.05,SSE,152,0.0,-999.0,84,-99.99,,,0.00,0,weatherlink.com 1.10,2013-02-20 04:41:00,
2013-02-19 23:56:00,68.9,64.0,30.05,SSE,153,0.0,-999.0,84,-99.99,,,0.00,0,weatherlink.com 1.10,2013-02-20 04:56:00,